Rousse, Bulgaria
Current Conditions -  °F | °C
As of 3:30 AM on Thursday 23 Oct 2014 (Local Time) from LRBS Reporting Station
Haze Haze  
Wind Chill: 54°   Ceiling: 400
Heat Index: 54°   Visibility: 1.2mi
Dew Point: 52°   Wind: 3mph
Humidity: 94%   Direction: 100°E
Pressure: 29.56"   Gusts: NA
Location:  43.83°N, 25.98°E
Report Text: LRBS 230030Z 10003KT 2000 BR BKN004 12/11 Q1001 NOSIG
Loading
Personal Weather Stations






























Interactive Weather Map
Tropical Storm Tracking
New forecast layout! Learn more

10-Day Weather Forecast

Advertisements
Track Severe Weather on mobile